createdAt,value
2023-02-11T00:00:00.129Z,1007.34
2023-02-11T00:01:00.281Z,1007.43
2023-02-11T00:02:00.263Z,1007.36
2023-02-11T00:02:59.292Z,1007.42
2023-02-11T00:03:59.292Z,1007.44
2023-02-11T00:05:00.135Z,1007.46
2023-02-11T00:06:00.052Z,1007.53
2023-02-11T00:06:59.235Z,1007.46
2023-02-11T00:07:59.226Z,1007.41
2023-02-11T00:08:59.196Z,1007.44
2023-02-11T00:09:59.196Z,1007.52
2023-02-11T00:10:59.473Z,1007.38
2023-02-11T00:11:59.195Z,1007.31
2023-02-11T00:12:59.654Z,1007.31
2023-02-11T00:13:59.184Z,1007.41
2023-02-11T00:14:59.125Z,1007.40
2023-02-11T00:15:59.735Z,1007.32
2023-02-11T00:16:59.591Z,1007.19
2023-02-11T00:17:59.133Z,1007.36
2023-02-11T00:18:59.814Z,1007.34
2023-02-11T00:19:59.065Z,1007.41
2023-02-11T00:20:59.079Z,1007.42
2023-02-11T00:21:59.235Z,1007.40
2023-02-11T00:22:59.020Z,1007.40
2023-02-11T00:23:59.016Z,1007.32
2023-02-11T00:24:59.110Z,1007.35
2023-02-11T00:25:58.981Z,1007.41
2023-02-11T00:26:59.023Z,1007.38
2023-02-11T00:27:58.977Z,1007.32
2023-02-11T00:28:58.944Z,1007.33
2023-02-11T00:29:59.025Z,1007.26
2023-02-11T00:30:59.043Z,1007.27
2023-02-11T00:31:59.125Z,1007.38
2023-02-11T00:32:59.049Z,1007.39
2023-02-11T00:33:58.884Z,1007.28
2023-02-11T00:34:59.073Z,1007.34
2023-02-11T00:35:58.895Z,1007.39
2023-02-11T00:36:59.106Z,1007.41
2023-02-11T00:37:58.920Z,1007.30
2023-02-11T00:38:58.833Z,1007.31
2023-02-11T00:39:58.778Z,1007.30
2023-02-11T00:40:58.797Z,1007.30
2023-02-11T00:41:59.024Z,1007.26
2023-02-11T00:42:58.766Z,1007.27
2023-02-11T00:43:58.955Z,1007.25
2023-02-11T00:44:58.717Z,1007.24
2023-02-11T00:45:59.185Z,1007.15
2023-02-11T00:46:59.184Z,1007.11
2023-02-11T00:47:59.488Z,1007.24
2023-02-11T00:48:59.156Z,1007.29
2023-02-11T00:49:58.664Z,1007.36
2023-02-11T00:50:58.647Z,1007.20
2023-02-11T00:51:59.251Z,1007.31
2023-02-11T00:52:58.633Z,1007.29
2023-02-11T00:53:58.616Z,1007.40
2023-02-11T00:54:59.268Z,1007.34
2023-02-11T00:55:58.573Z,1007.38
2023-02-11T00:56:59.288Z,1007.40
2023-02-11T00:57:59.396Z,1007.53
2023-02-11T00:58:59.294Z,1007.40
2023-02-11T00:59:59.083Z,1007.44
2023-02-11T01:00:58.577Z,1007.51
2023-02-11T01:01:58.523Z,1007.57
2023-02-11T01:02:59.394Z,1007.58
2023-02-11T01:03:59.337Z,1007.46
2023-02-11T01:04:59.272Z,1007.60
2023-02-11T01:05:58.475Z,1007.50
2023-02-11T01:06:58.496Z,1007.55
2023-02-11T01:07:58.586Z,1007.52
2023-02-11T01:08:58.605Z,1007.52
2023-02-11T01:09:58.396Z,1007.38
2023-02-11T01:10:58.741Z,1007.43
2023-02-11T01:11:58.424Z,1007.42
2023-02-11T01:12:58.375Z,1007.40
2023-02-11T01:13:58.947Z,1007.30
2023-02-11T01:14:58.957Z,1007.26
2023-02-11T01:15:58.402Z,1007.28
2023-02-11T01:16:59.079Z,1007.24
2023-02-11T01:17:59.068Z,1007.15
2023-02-11T01:18:59.186Z,1007.06
2023-02-11T01:19:58.297Z,1007.11
2023-02-11T01:20:58.277Z,1007.11
2023-02-11T01:21:59.146Z,1007.09
2023-02-11T01:22:59.047Z,1007.07
2023-02-11T01:23:58.227Z,1007.17
2023-02-11T01:24:58.246Z,1007.14
2023-02-11T01:25:58.205Z,1007.10
2023-02-11T01:26:58.218Z,1007.20
2023-02-11T01:27:59.128Z,1007.22
2023-02-11T01:28:58.158Z,1007.17
2023-02-11T01:29:58.909Z,1007.28
2023-02-11T01:30:58.156Z,1007.37
2023-02-11T01:31:58.984Z,1007.31
2023-02-11T01:32:58.117Z,1007.43
2023-02-11T01:33:58.976Z,1007.24
2023-02-11T01:34:58.077Z,1007.27
2023-02-11T01:35:58.073Z,1007.26
2023-02-11T01:36:58.085Z,1007.20
2023-02-11T01:37:58.044Z,1007.37
2023-02-11T01:38:58.025Z,1007.42
2023-02-11T01:39:58.039Z,1007.39
2023-02-11T01:40:58.019Z,1007.42
2023-02-11T01:41:58.024Z,1007.30
2023-02-11T01:42:57.977Z,1007.33
2023-02-11T01:43:58.525Z,1007.18
2023-02-11T01:44:58.017Z,1007.25
2023-02-11T01:45:58.108Z,1007.34
2023-02-11T01:46:57.945Z,1007.32
2023-02-11T01:47:58.053Z,1007.28
2023-02-11T01:48:58.053Z,1007.22
2023-02-11T01:49:58.024Z,1007.15
2023-02-11T01:50:57.868Z,1007.25
2023-02-11T01:51:58.282Z,1007.08
2023-02-11T01:52:57.836Z,1007.23
2023-02-11T01:53:57.847Z,1007.23
2023-02-11T01:54:58.702Z,1007.41
2023-02-11T01:55:57.804Z,1007.28
2023-02-11T01:56:57.828Z,1007.18
2023-02-11T01:57:57.794Z,1007.21
2023-02-11T01:58:57.773Z,1007.13
2023-02-11T01:59:58.420Z,1007.18
2023-02-11T02:00:57.744Z,1007.07
2023-02-11T02:01:58.732Z,1007.16
2023-02-11T02:02:58.544Z,1007.20
2023-02-11T02:03:57.881Z,1007.19
2023-02-11T02:04:57.759Z,1007.21
2023-02-11T02:05:57.846Z,1007.28
2023-02-11T02:06:57.864Z,1007.27
2023-02-11T02:07:57.650Z,1007.26
2023-02-11T02:08:57.662Z,1007.21
2023-02-11T02:09:57.636Z,1007.16
2023-02-11T02:10:57.773Z,1007.12
2023-02-11T02:11:57.623Z,1007.11
2023-02-11T02:12:58.520Z,1007.09
2023-02-11T02:13:58.207Z,1007.06
2023-02-11T02:14:57.559Z,1006.99
2023-02-11T02:15:57.570Z,1006.99
2023-02-11T02:16:57.726Z,1007.03
2023-02-11T02:17:57.698Z,1007.05
2023-02-11T02:18:57.498Z,1007.07
2023-02-11T02:19:58.028Z,1006.98
2023-02-11T02:20:57.486Z,1007.01
2023-02-11T02:21:57.508Z,1007.02
2023-02-11T02:22:57.564Z,1007.01
2023-02-11T02:23:57.430Z,1007.17
2023-02-11T02:24:57.425Z,1007.14
2023-02-11T02:25:57.460Z,1007.10
2023-02-11T02:26:57.422Z,1007.18
2023-02-11T02:27:57.506Z,1007.17
2023-02-11T02:28:57.363Z,1007.25
2023-02-11T02:29:57.424Z,1007.29
2023-02-11T02:30:57.520Z,1007.25
2023-02-11T02:31:57.416Z,1007.27
2023-02-11T02:32:57.435Z,1007.19
2023-02-11T02:33:57.301Z,1007.21
2023-02-11T02:34:57.312Z,1007.17
2023-02-11T02:35:57.400Z,1007.17
2023-02-11T02:36:57.423Z,1007.28
2023-02-11T02:37:57.393Z,1007.28
2023-02-11T02:38:57.413Z,1007.14
2023-02-11T02:39:57.414Z,1007.18
2023-02-11T02:40:57.210Z,1007.08
2023-02-11T02:41:57.239Z,1007.08
2023-02-11T02:42:57.261Z,1007.06
2023-02-11T02:43:57.178Z,1007.11
2023-02-11T02:44:57.158Z,1007.06
2023-02-11T02:45:57.144Z,1007.08
2023-02-11T02:46:57.287Z,1007.05
2023-02-11T02:47:57.158Z,1007.12
2023-02-11T02:48:57.123Z,1007.08
2023-02-11T02:49:57.421Z,1007.07
2023-02-11T02:50:57.083Z,1007.11
2023-02-11T02:51:57.086Z,1007.13
2023-02-11T02:52:57.083Z,1007.07
2023-02-11T02:53:57.033Z,1007.07
2023-02-11T02:54:57.024Z,1007.09
2023-02-11T02:55:57.013Z,1007.05
2023-02-11T02:56:57.001Z,1007.05
2023-02-11T02:57:57.216Z,1007.05
2023-02-11T02:58:56.976Z,1007.02
2023-02-11T02:59:56.961Z,1006.98
2023-02-11T03:00:57.453Z,1007.01
2023-02-11T03:01:57.411Z,1007.00
2023-02-11T03:02:57.413Z,1006.93
2023-02-11T03:03:56.957Z,1007.01
2023-02-11T03:04:56.913Z,1007.06
2023-02-11T03:05:57.124Z,1007.07
2023-02-11T03:06:57.204Z,1007.06
2023-02-11T03:07:56.942Z,1007.00
2023-02-11T03:08:57.332Z,1007.07
2023-02-11T03:09:56.849Z,1007.07
2023-02-11T03:10:56.842Z,1006.97
2023-02-11T03:11:57.445Z,1006.89
2023-02-11T03:12:56.831Z,1007.01
2023-02-11T03:13:56.794Z,1007.05
2023-02-11T03:14:56.774Z,1007.11
2023-02-11T03:15:56.819Z,1007.09
2023-02-11T03:16:56.752Z,1007.00
2023-02-11T03:17:57.487Z,1007.08
2023-02-11T03:18:56.712Z,1007.06
2023-02-11T03:19:57.495Z,1007.01
2023-02-11T03:20:57.455Z,1007.03
2023-02-11T03:21:57.518Z,1007.00
2023-02-11T03:22:57.117Z,1007.01
2023-02-11T03:23:56.641Z,1007.01
2023-02-11T03:24:56.645Z,1007.01
2023-02-11T03:25:56.623Z,1006.99
2023-02-11T03:26:56.621Z,1006.99
2023-02-11T03:27:56.723Z,1006.91
2023-02-11T03:28:57.470Z,1006.91
2023-02-11T03:29:57.350Z,1006.85
2023-02-11T03:30:56.572Z,1006.91
2023-02-11T03:31:56.584Z,1006.91
2023-02-11T03:32:56.560Z,1006.94
2023-02-11T03:33:56.667Z,1006.92
2023-02-11T03:34:56.512Z,1006.93
2023-02-11T03:35:56.506Z,1006.96
2023-02-11T03:36:56.500Z,1006.91
2023-02-11T03:37:56.563Z,1006.91
2023-02-11T03:38:56.519Z,1006.91
2023-02-11T03:39:56.436Z,1006.91
2023-02-11T03:40:56.431Z,1006.94
2023-02-11T03:41:56.423Z,1007.00
2023-02-11T03:42:56.438Z,1007.06
2023-02-11T03:43:56.397Z,1006.97
2023-02-11T03:44:56.378Z,1006.89
2023-02-11T03:45:56.391Z,1006.91
2023-02-11T03:46:56.387Z,1006.86
2023-02-11T03:47:56.374Z,1006.84
2023-02-11T03:48:56.330Z,1006.84
2023-02-11T03:49:56.310Z,1006.82
2023-02-11T03:50:56.302Z,1006.81
2023-02-11T03:51:56.474Z,1006.77
2023-02-11T03:52:56.501Z,1006.88
2023-02-11T03:53:56.248Z,1006.80
2023-02-11T03:54:56.246Z,1006.76
2023-02-11T03:55:56.499Z,1006.78
2023-02-11T03:56:56.228Z,1006.70
2023-02-11T03:57:56.247Z,1006.79
2023-02-11T03:58:56.197Z,1006.83
2023-02-11T03:59:56.188Z,1006.81
2023-02-11T04:00:56.412Z,1006.86
2023-02-11T04:01:56.151Z,1006.84
2023-02-11T04:02:56.211Z,1006.78
2023-02-11T04:03:56.138Z,1006.74
2023-02-11T04:04:56.346Z,1006.80
2023-02-11T04:05:56.458Z,1006.77
2023-02-11T04:06:56.466Z,1006.80
2023-02-11T04:07:56.477Z,1006.79
2023-02-11T04:08:56.068Z,1006.77
2023-02-11T04:09:56.055Z,1006.79
2023-02-11T04:10:56.047Z,1006.84
2023-02-11T04:11:56.016Z,1006.88
2023-02-11T04:12:56.039Z,1006.81
2023-02-11T04:13:55.989Z,1006.86
2023-02-11T04:14:55.993Z,1006.77
2023-02-11T04:15:56.013Z,1006.80
2023-02-11T04:16:55.973Z,1006.85
2023-02-11T04:17:55.997Z,1006.79
2023-02-11T04:18:55.945Z,1006.73
2023-02-11T04:19:55.916Z,1006.77
2023-02-11T04:20:55.914Z,1006.70
2023-02-11T04:21:55.891Z,1006.71
2023-02-11T04:22:56.468Z,1006.76
2023-02-11T04:23:56.475Z,1006.72
2023-02-11T04:24:55.878Z,1006.70
2023-02-11T04:25:55.844Z,1006.70
2023-02-11T04:26:55.837Z,1006.65
2023-02-11T04:27:55.941Z,1006.70
2023-02-11T04:28:56.503Z,1006.68
2023-02-11T04:29:55.789Z,1006.65
2023-02-11T04:30:55.875Z,1006.65
2023-02-11T04:31:55.878Z,1006.63
2023-02-11T04:32:55.793Z,1006.70
2023-02-11T04:33:55.734Z,1006.73
2023-02-11T04:34:55.728Z,1006.66
2023-02-11T04:35:55.705Z,1006.70
2023-02-11T04:36:55.710Z,1006.71
2023-02-11T04:37:56.264Z,1006.67
2023-02-11T04:38:56.263Z,1006.68
2023-02-11T04:39:55.661Z,1006.72
2023-02-11T04:40:55.643Z,1006.74
2023-02-11T04:41:55.658Z,1006.58
2023-02-11T04:42:55.652Z,1006.65
2023-02-11T04:43:55.602Z,1006.64
2023-02-11T04:44:55.606Z,1006.69
2023-02-11T04:45:55.594Z,1006.60
2023-02-11T04:46:56.384Z,1006.62
2023-02-11T04:47:55.589Z,1006.62
2023-02-11T04:48:55.534Z,1006.50
2023-02-11T04:49:55.522Z,1006.48
2023-02-11T04:50:55.512Z,1006.58
2023-02-11T04:51:55.507Z,1006.48
2023-02-11T04:52:55.522Z,1006.52
2023-02-11T04:53:56.461Z,1006.58
2023-02-11T04:54:55.500Z,1006.56
2023-02-11T04:55:56.274Z,1006.49
2023-02-11T04:56:55.441Z,1006.64
2023-02-11T04:57:55.464Z,1006.70
2023-02-11T04:58:55.402Z,1006.60
2023-02-11T04:59:55.407Z,1006.54
2023-02-11T05:00:55.438Z,1006.72
2023-02-11T05:01:55.592Z,1006.71
2023-02-11T05:02:55.682Z,1006.69
2023-02-11T05:03:55.455Z,1006.76
2023-02-11T05:04:55.337Z,1006.71
2023-02-11T05:05:55.331Z,1006.71
2023-02-11T05:06:57.126Z,1006.72
2023-02-11T05:07:55.404Z,1006.70
2023-02-11T05:08:55.499Z,1006.62
2023-02-11T05:09:55.649Z,1006.59
2023-02-11T05:10:55.259Z,1006.67
2023-02-11T05:11:55.242Z,1006.70
2023-02-11T05:12:56.094Z,1006.74
2023-02-11T05:13:55.230Z,1006.73
2023-02-11T05:14:55.211Z,1006.69
2023-02-11T05:15:55.192Z,1006.68
2023-02-11T05:16:55.231Z,1006.68
2023-02-11T05:17:55.193Z,1006.71
2023-02-11T05:18:55.149Z,1006.66
2023-02-11T05:19:55.138Z,1006.73
2023-02-11T05:20:55.129Z,1006.74
2023-02-11T05:22:02.632Z,1006.75
2023-02-11T05:22:56.452Z,1006.75
2023-02-11T05:23:55.889Z,1006.80
2023-02-11T05:24:56.036Z,1006.77
2023-02-11T05:25:55.166Z,1006.88
2023-02-11T05:26:55.252Z,1006.80
2023-02-11T05:27:55.096Z,1006.85
2023-02-11T05:28:55.936Z,1006.81
2023-02-11T05:29:55.184Z,1006.89
2023-02-11T05:30:55.196Z,1006.95
2023-02-11T05:31:55.028Z,1006.87
2023-02-11T05:32:55.214Z,1006.85
2023-02-11T05:33:54.985Z,1006.83
2023-02-11T05:34:54.950Z,1006.85
2023-02-11T05:35:54.935Z,1006.82
2023-02-11T05:36:55.241Z,1006.77
2023-02-11T05:37:54.936Z,1006.72
2023-02-11T05:38:54.908Z,1006.68
2023-02-11T05:39:55.624Z,1006.67
2023-02-11T05:40:55.676Z,1006.68
2023-02-11T05:41:54.863Z,1006.71
2023-02-11T05:42:54.877Z,1006.71
2023-02-11T05:43:54.826Z,1006.70
2023-02-11T05:44:54.820Z,1006.71
2023-02-11T05:45:54.957Z,1006.71
2023-02-11T05:46:54.786Z,1006.77
2023-02-11T05:47:54.814Z,1006.76
2023-02-11T05:48:56.115Z,1006.74
2023-02-11T05:49:54.746Z,1006.76
2023-02-11T05:50:54.742Z,1006.75
2023-02-11T05:51:54.727Z,1006.78
2023-02-11T05:52:54.740Z,1006.84
2023-02-11T05:53:54.699Z,1006.85
2023-02-11T05:54:55.517Z,1006.81
2023-02-11T05:55:55.644Z,1006.88
2023-02-11T05:56:54.662Z,1006.76
2023-02-11T05:57:54.659Z,1006.79
2023-02-11T05:58:54.672Z,1006.74
2023-02-11T05:59:54.612Z,1006.79
2023-02-11T06:00:54.618Z,1006.87
2023-02-11T06:01:54.601Z,1006.75
2023-02-11T06:02:54.640Z,1006.75
2023-02-11T06:03:54.656Z,1006.75
2023-02-11T06:04:54.543Z,1006.73
2023-02-11T06:05:54.542Z,1006.78
2023-02-11T06:06:54.545Z,1006.68
2023-02-11T06:07:54.514Z,1006.73
2023-02-11T06:08:54.521Z,1006.72
2023-02-11T06:09:54.511Z,1006.72
2023-02-11T06:10:55.206Z,1006.73
2023-02-11T06:11:54.464Z,1006.70
2023-02-11T06:12:54.641Z,1006.71
2023-02-11T06:13:54.472Z,1006.68
2023-02-11T06:14:54.440Z,1006.73
2023-02-11T06:15:54.467Z,1006.70
2023-02-11T06:16:54.402Z,1006.72
2023-02-11T06:17:54.380Z,1006.69
2023-02-11T06:18:54.391Z,1006.75
2023-02-11T06:19:54.388Z,1006.71
2023-02-11T06:20:54.569Z,1006.70
2023-02-11T06:21:54.340Z,1006.64
2023-02-11T06:22:54.327Z,1006.66
2023-02-11T06:23:54.288Z,1006.68
2023-02-11T06:25:01.264Z,1006.73
2023-02-11T06:25:55.284Z,1006.72
2023-02-11T06:26:54.257Z,1006.75
2023-02-11T06:27:54.203Z,1006.80
2023-02-11T06:28:54.271Z,1006.74
2023-02-11T06:29:54.290Z,1006.82
2023-02-11T06:30:54.242Z,1006.82
2023-02-11T06:31:54.305Z,1006.89
2023-02-11T06:32:54.275Z,1006.92
2023-02-11T06:33:54.157Z,1006.92
2023-02-11T06:34:54.112Z,1007.00
2023-02-11T06:35:54.119Z,1007.01
2023-02-11T06:36:54.096Z,1006.98
2023-02-11T06:37:54.075Z,1007.01
2023-02-11T06:38:54.086Z,1006.99
2023-02-11T06:39:54.039Z,1006.95
2023-02-11T06:40:54.056Z,1006.91
2023-02-11T06:41:54.247Z,1006.91
2023-02-11T06:42:54.028Z,1006.96
2023-02-11T06:43:54.061Z,1006.95
2023-02-11T06:44:53.968Z,1006.94
2023-02-11T06:45:53.976Z,1006.94
2023-02-11T06:46:54.064Z,1006.96
2023-02-11T06:47:53.949Z,1006.98
2023-02-11T06:48:53.938Z,1006.97
2023-02-11T06:49:53.922Z,1007.00
2023-02-11T06:50:53.897Z,1006.98
2023-02-11T06:51:53.897Z,1007.03
2023-02-11T06:52:54.259Z,1007.09
2023-02-11T06:53:54.254Z,1007.09
2023-02-11T06:54:53.858Z,1007.09
2023-02-11T06:55:53.837Z,1007.12
2023-02-11T06:56:53.947Z,1007.18
2023-02-11T06:57:54.003Z,1007.17
2023-02-11T06:58:53.818Z,1007.14
2023-02-11T06:59:53.791Z,1007.11
2023-02-11T07:00:53.767Z,1007.15
2023-02-11T07:01:53.826Z,1007.15
2023-02-11T07:02:53.853Z,1007.20
2023-02-11T07:03:53.770Z,1007.15
2023-02-11T07:04:53.757Z,1007.20
2023-02-11T07:05:53.710Z,1007.20
2023-02-11T07:06:54.242Z,1007.21
2023-02-11T07:07:53.686Z,1007.20
2023-02-11T07:08:53.691Z,1007.25
2023-02-11T07:09:53.670Z,1007.25
2023-02-11T07:10:53.646Z,1007.20
2023-02-11T07:11:54.244Z,1007.22
2023-02-11T07:12:55.559Z,1007.19
2023-02-11T07:13:53.626Z,1007.24
2023-02-11T07:14:53.603Z,1007.21
2023-02-11T07:15:53.861Z,1007.21
2023-02-11T07:16:53.569Z,1007.20
2023-02-11T07:17:53.552Z,1007.26
2023-02-11T07:18:53.613Z,1007.28
2023-02-11T07:19:53.515Z,1007.28
2023-02-11T07:20:53.514Z,1007.29
2023-02-11T07:21:53.501Z,1007.28
2023-02-11T07:22:53.484Z,1007.31
2023-02-11T07:23:53.510Z,1007.30
2023-02-11T07:24:53.499Z,1007.35
2023-02-11T07:25:57.157Z,1007.32
2023-02-11T07:26:53.600Z,1007.28
2023-02-11T07:27:53.583Z,1007.28
2023-02-11T07:28:53.623Z,1007.25
2023-02-11T07:29:53.698Z,1007.29
2023-02-11T07:30:53.575Z,1007.29
2023-02-11T07:31:53.629Z,1007.23
2023-02-11T07:32:54.030Z,1007.26
2023-02-11T07:33:53.375Z,1007.24
2023-02-11T07:34:53.355Z,1007.21
2023-02-11T07:35:53.444Z,1007.24
2023-02-11T07:36:53.303Z,1007.22
2023-02-11T07:37:54.029Z,1007.21
2023-02-11T07:38:53.307Z,1007.22
2023-02-11T07:39:53.260Z,1007.17
2023-02-11T07:40:53.491Z,1007.21
2023-02-11T07:41:53.232Z,1007.15
2023-02-11T07:42:54.053Z,1007.17
2023-02-11T07:43:53.981Z,1007.18
2023-02-11T07:44:53.195Z,1007.12
2023-02-11T07:45:53.201Z,1007.12
2023-02-11T07:46:53.222Z,1007.15
2023-02-11T07:47:53.149Z,1007.20
2023-02-11T07:48:53.156Z,1007.23
2023-02-11T07:49:56.210Z,1007.15
2023-02-11T07:50:53.110Z,1007.21
2023-02-11T07:51:53.968Z,1007.26
2023-02-11T07:52:53.088Z,1007.20
2023-02-11T07:53:53.107Z,1007.28
2023-02-11T07:54:53.099Z,1007.26
2023-02-11T07:55:53.169Z,1007.28
2023-02-11T07:56:53.212Z,1007.37
2023-02-11T07:57:53.044Z,1007.35
2023-02-11T07:58:53.450Z,1007.46
2023-02-11T07:59:52.996Z,1007.40
2023-02-11T08:00:52.999Z,1007.42
2023-02-11T08:01:53.011Z,1007.36
2023-02-11T08:02:52.958Z,1007.40
2023-02-11T08:03:52.985Z,1007.37
2023-02-11T08:04:52.946Z,1007.36
2023-02-11T08:05:53.099Z,1007.38
2023-02-11T08:06:52.925Z,1007.35
2023-02-11T08:07:52.901Z,1007.37
2023-02-11T08:08:52.917Z,1007.33
2023-02-11T08:09:52.868Z,1007.41
2023-02-11T08:10:52.994Z,1007.45
2023-02-11T08:11:52.843Z,1007.41
2023-02-11T08:12:53.770Z,1007.50
2023-02-11T08:13:53.636Z,1007.44
2023-02-11T08:14:53.607Z,1007.44
2023-02-11T08:15:52.987Z,1007.41
2023-02-11T08:16:52.816Z,1007.43
2023-02-11T08:17:52.762Z,1007.43
2023-02-11T08:18:52.836Z,1007.48
2023-02-11T08:19:52.938Z,1007.40
2023-02-11T08:20:52.954Z,1007.34
2023-02-11T08:21:53.642Z,1007.45
2023-02-11T08:22:52.695Z,1007.43
2023-02-11T08:23:53.467Z,1007.36
2023-02-11T08:24:52.732Z,1007.34
2023-02-11T08:25:52.658Z,1007.38
2023-02-11T08:26:52.630Z,1007.38
2023-02-11T08:27:52.721Z,1007.42
2023-02-11T08:28:53.004Z,1007.38
2023-02-11T08:29:53.142Z,1007.45
2023-02-11T08:30:53.156Z,1007.48
2023-02-11T08:31:52.827Z,1007.50
2023-02-11T08:32:52.762Z,1007.43
2023-02-11T08:33:52.586Z,1007.50
2023-02-11T08:34:52.682Z,1007.52
2023-02-11T08:35:52.854Z,1007.50
2023-02-11T08:36:52.524Z,1007.55
2023-02-11T08:37:52.585Z,1007.52
2023-02-11T08:38:52.485Z,1007.54
2023-02-11T08:39:52.467Z,1007.58
2023-02-11T08:40:53.284Z,1007.59
2023-02-11T08:41:52.477Z,1007.57
2023-02-11T08:42:52.987Z,1007.64
2023-02-11T08:43:52.998Z,1007.58
2023-02-11T08:44:53.218Z,1007.66
2023-02-11T08:45:52.919Z,1007.65
2023-02-11T08:46:52.429Z,1007.71
2023-02-11T08:47:52.375Z,1007.65
2023-02-11T08:48:52.349Z,1007.73
2023-02-11T08:49:52.356Z,1007.72
2023-02-11T08:50:52.378Z,1007.60
2023-02-11T08:51:53.059Z,1007.70
2023-02-11T08:52:52.296Z,1007.63
2023-02-11T08:53:52.275Z,1007.67
2023-02-11T08:54:52.307Z,1007.63
2023-02-11T08:55:52.548Z,1007.62
2023-02-11T08:56:52.248Z,1007.60
2023-02-11T08:57:52.351Z,1007.58
2023-02-11T08:58:52.225Z,1007.65
2023-02-11T08:59:52.215Z,1007.73
2023-02-11T09:00:52.810Z,1007.71
2023-02-11T09:01:52.426Z,1007.65
2023-02-11T09:02:52.335Z,1007.72
2023-02-11T09:03:52.475Z,1007.61
2023-02-11T09:04:52.302Z,1007.70
2023-02-11T09:05:52.926Z,1007.69
2023-02-11T09:06:53.041Z,1007.75
2023-02-11T09:07:52.219Z,1007.68
2023-02-11T09:08:52.120Z,1007.72
2023-02-11T09:09:52.238Z,1007.72
2023-02-11T09:10:53.341Z,1007.73
2023-02-11T09:11:52.537Z,1007.73
2023-02-11T09:12:54.551Z,1007.74
2023-02-11T09:13:54.299Z,1007.73
2023-02-11T09:14:52.900Z,1007.68
2023-02-11T09:15:52.814Z,1007.75
2023-02-11T09:16:52.358Z,1007.65
2023-02-11T09:17:52.088Z,1007.67
2023-02-11T09:18:52.144Z,1007.67
2023-02-11T09:19:51.955Z,1007.61
2023-02-11T09:20:52.439Z,1007.62
2023-02-11T09:21:52.114Z,1007.61
2023-02-11T09:22:51.915Z,1007.59
2023-02-11T09:23:52.102Z,1007.57
2023-02-11T09:24:51.954Z,1007.59
2023-02-11T09:25:52.256Z,1007.56
2023-02-11T09:26:51.865Z,1007.59
2023-02-11T09:27:51.837Z,1007.58
2023-02-11T09:28:51.842Z,1007.62
2023-02-11T09:29:51.858Z,1007.56
2023-02-11T09:30:52.137Z,1007.55
2023-02-11T09:31:52.489Z,1007.57
2023-02-11T09:32:51.781Z,1007.56
2023-02-11T09:33:51.761Z,1007.65
2023-02-11T09:34:51.785Z,1007.64
2023-02-11T09:35:51.734Z,1007.68
2023-02-11T09:36:51.727Z,1007.75
2023-02-11T09:37:51.713Z,1007.66
2023-02-11T09:38:51.728Z,1007.73
2023-02-11T09:39:51.723Z,1007.79
2023-02-11T09:40:52.131Z,1007.86
2023-02-11T09:41:51.756Z,1007.88
2023-02-11T09:42:51.767Z,1007.87
2023-02-11T09:43:51.622Z,1007.82
2023-02-11T09:44:51.651Z,1007.89
2023-02-11T09:45:51.850Z,1007.87
2023-02-11T09:46:52.410Z,1007.87
2023-02-11T09:47:51.731Z,1007.92
2023-02-11T09:48:51.594Z,1007.83
2023-02-11T09:49:51.669Z,1007.84
2023-02-11T09:50:51.838Z,1007.90
2023-02-11T09:51:51.550Z,1007.88
2023-02-11T09:52:51.533Z,1007.88
2023-02-11T09:53:51.551Z,1007.83
2023-02-11T09:54:51.552Z,1007.87
2023-02-11T09:55:51.472Z,1007.88
2023-02-11T09:56:51.484Z,1007.96
2023-02-11T09:57:51.553Z,1007.91
2023-02-11T09:58:51.471Z,1008.01
2023-02-11T09:59:51.458Z,1007.96
2023-02-11T10:00:51.743Z,1007.95
2023-02-11T10:01:51.998Z,1007.85
2023-02-11T10:02:51.993Z,1007.89
2023-02-11T10:03:51.372Z,1007.93
2023-02-11T10:04:51.407Z,1007.96
2023-02-11T10:05:51.351Z,1007.87
2023-02-11T10:06:52.293Z,1007.89
2023-02-11T10:07:51.321Z,1007.93
2023-02-11T10:08:51.325Z,1007.87
2023-02-11T10:09:51.346Z,1007.93
2023-02-11T10:10:51.529Z,1008.00
2023-02-11T10:11:51.263Z,1008.04
2023-02-11T10:12:51.264Z,1008.05
2023-02-11T10:13:51.247Z,1008.05
2023-02-11T10:14:51.256Z,1008.02
2023-02-11T10:15:51.270Z,1008.07
2023-02-11T10:16:51.239Z,1007.97
2023-02-11T10:17:51.982Z,1008.01
2023-02-11T10:18:51.180Z,1008.04
2023-02-11T10:19:51.735Z,1008.01
2023-02-11T10:20:51.512Z,1008.07
2023-02-11T10:21:52.057Z,1008.07
2023-02-11T10:22:51.122Z,1008.10
2023-02-11T10:23:51.124Z,1008.01
2023-02-11T10:24:51.141Z,1008.03
2023-02-11T10:25:51.086Z,1008.13
2023-02-11T10:26:51.072Z,1008.10
2023-02-11T10:27:51.064Z,1008.10
2023-02-11T10:28:51.054Z,1008.19
2023-02-11T10:29:51.071Z,1008.16
2023-02-11T10:30:51.540Z,1008.17
2023-02-11T10:31:51.129Z,1008.11
2023-02-11T10:32:51.829Z,1008.13
2023-02-11T10:33:51.150Z,1008.07
2023-02-11T10:34:51.026Z,1008.14
2023-02-11T10:35:50.961Z,1008.12
2023-02-11T10:36:50.941Z,1008.17
2023-02-11T10:37:50.938Z,1008.18
2023-02-11T10:38:50.988Z,1008.23
2023-02-11T10:39:51.020Z,1008.18
2023-02-11T10:40:51.339Z,1008.24
2023-02-11T10:41:50.882Z,1008.27
2023-02-11T10:42:53.696Z,1008.27
2023-02-11T10:43:50.869Z,1008.33
2023-02-11T10:44:50.874Z,1008.30
2023-02-11T10:45:50.836Z,1008.29
2023-02-11T10:46:50.871Z,1008.29
2023-02-11T10:47:51.150Z,1008.29
2023-02-11T10:48:51.169Z,1008.27
2023-02-11T10:49:51.156Z,1008.27
2023-02-11T10:50:51.481Z,1008.28
2023-02-11T10:51:50.748Z,1008.24
2023-02-11T10:52:50.802Z,1008.21
2023-02-11T10:53:50.745Z,1008.29
2023-02-11T10:54:50.736Z,1008.19
2023-02-11T10:55:50.970Z,1008.30
2023-02-11T10:56:50.709Z,1008.26
2023-02-11T10:57:50.799Z,1008.27
2023-02-11T10:58:50.831Z,1008.23
2023-02-11T10:59:50.672Z,1008.23
2023-02-11T11:00:51.006Z,1008.22
2023-02-11T11:01:50.826Z,1008.24
2023-02-11T11:02:50.731Z,1008.20
2023-02-11T11:03:51.132Z,1008.21
2023-02-11T11:04:50.630Z,1008.24
2023-02-11T11:05:50.610Z,1008.21
2023-02-11T11:06:50.555Z,1008.27
2023-02-11T11:07:50.536Z,1008.29
2023-02-11T11:08:50.544Z,1008.31
2023-02-11T11:09:50.541Z,1008.29
2023-02-11T11:10:52.747Z,1008.27
2023-02-11T11:11:50.487Z,1008.27
2023-02-11T11:12:50.497Z,1008.27
2023-02-11T11:13:50.460Z,1008.35
2023-02-11T11:14:51.208Z,1008.33
2023-02-11T11:15:50.451Z,1008.38
2023-02-11T11:16:50.418Z,1008.28
2023-02-11T11:17:50.404Z,1008.29
2023-02-11T11:18:50.408Z,1008.38
2023-02-11T11:19:51.155Z,1008.39
2023-02-11T11:20:50.597Z,1008.30
2023-02-11T11:21:50.346Z,1008.36
2023-02-11T11:22:50.407Z,1008.25
2023-02-11T11:23:50.332Z,1008.32
2023-02-11T11:24:50.345Z,1008.28
2023-02-11T11:25:50.580Z,1008.24
2023-02-11T11:26:50.313Z,1008.21
2023-02-11T11:27:50.283Z,1008.20
2023-02-11T11:28:50.257Z,1008.15
2023-02-11T11:29:50.273Z,1008.23
2023-02-11T11:30:50.554Z,1008.28
2023-02-11T11:31:50.236Z,1008.21
2023-02-11T11:32:50.332Z,1008.23
2023-02-11T11:33:50.227Z,1008.21
2023-02-11T11:34:50.237Z,1008.17
2023-02-11T11:35:50.163Z,1008.23
2023-02-11T11:36:50.245Z,1008.23
2023-02-11T11:37:50.304Z,1008.21
2023-02-11T11:38:50.293Z,1008.15
2023-02-11T11:39:50.135Z,1008.19
2023-02-11T11:40:50.378Z,1008.26
2023-02-11T11:41:50.824Z,1008.23
2023-02-11T11:42:50.078Z,1008.26
2023-02-11T11:43:50.108Z,1008.23
2023-02-11T11:44:50.259Z,1008.31
2023-02-11T11:45:50.439Z,1008.20
2023-02-11T11:46:50.320Z,1008.29
2023-02-11T11:47:50.589Z,1008.28
2023-02-11T11:48:50.033Z,1008.23
2023-02-11T11:49:50.596Z,1008.25
2023-02-11T11:50:50.400Z,1008.18
2023-02-11T11:51:49.986Z,1008.20
2023-02-11T11:52:50.124Z,1008.21
2023-02-11T11:53:50.094Z,1008.15
2023-02-11T11:54:50.154Z,1008.23
2023-02-11T11:55:50.204Z,1008.13
2023-02-11T11:56:50.255Z,1008.17
2023-02-11T11:57:50.021Z,1008.16
2023-02-11T11:58:49.962Z,1008.13
2023-02-11T11:59:50.217Z,1008.02
2023-02-11T12:00:50.571Z,1008.21
2023-02-11T12:01:50.042Z,1008.15
2023-02-11T12:02:49.875Z,1008.05
2023-02-11T12:03:50.649Z,1008.00
2023-02-11T12:04:50.344Z,1008.11